Time;durP1;ratioP1;P1;durP2;ratioP2;P2;SDS_P1;SDS_P2;PMS_P1;PMS_P2;Temp;Humidity;BMP_temperature;BMP_pressure;BME280_temperature;BME280_humidity;BME280_pressure;Samples;Min_cycle;Max_cycle;Signal;HPM_P1;HPM_P2
2022/05/19 00:01:23;;;;;;;2.53;1.27;;;23.30;56.30;;;;;;4476104;31;20088;-71
2022/05/19 00:03:49;;;;;;;3.13;1.50;;;23.30;56.20;;;;;;4476065;31;20100;-69
2022/05/19 00:06:16;;;;;;;1.83;1.15;;;23.30;56.20;;;;;;4476341;31;20550;-69
2022/05/19 00:08:42;;;;;;;2.60;1.48;;;23.30;56.20;;;;;;4476242;32;20419;-69
2022/05/19 00:11:12;;;;;;;1.95;1.20;;;23.20;56.20;;;;;;4476490;32;20088;-69
2022/05/19 00:13:39;;;;;;;1.95;1.40;;;23.20;56.20;;;;;;4476358;32;20497;-71
2022/05/19 00:16:05;;;;;;;3.33;1.40;;;23.20;56.20;;;;;;4476022;32;20234;-70
2022/05/19 00:18:32;;;;;;;1.88;1.20;;;23.20;56.20;;;;;;4476231;31;20085;-71
2022/05/19 00:20:58;;;;;;;3.28;1.30;;;23.20;56.20;;;;;;4476102;31;20279;-69
2022/05/19 00:23:24;;;;;;;3.97;1.48;;;23.20;56.20;;;;;;4476364;32;20069;-70
2022/05/19 00:25:50;;;;;;;2.75;1.50;;;23.20;56.20;;;;;;4474722;32;20080;-69
2022/05/19 00:28:16;;;;;;;2.85;1.30;;;23.20;56.20;;;;;;4476117;32;20506;-69
2022/05/19 00:30:43;;;;;;;2.08;1.15;;;23.20;56.20;;;;;;4476217;32;20087;-69
2022/05/19 00:33:09;;;;;;;2.03;1.20;;;23.20;56.20;;;;;;4476074;32;20089;-70
2022/05/19 00:35:37;;;;;;;2.50;1.50;;;23.10;56.10;;;;;;4476226;32;20101;-70
2022/05/19 00:38:03;;;;;;;2.75;1.38;;;23.20;56.20;;;;;;4476009;32;20092;-69
2022/05/19 00:40:29;;;;;;;2.22;1.30;;;23.20;56.20;;;;;;4475923;32;20081;-71
2022/05/19 00:42:55;;;;;;;2.13;1.17;;;23.20;56.20;;;;;;4476112;32;20121;-69
2022/05/19 00:45:24;;;;;;;3.03;1.20;;;23.10;56.10;;;;;;4475974;32;20388;-70
2022/05/19 00:48:24;;;;;;;2.72;1.33;;;23.10;56.20;;;;;;4476133;32;20084;-69
2022/05/19 00:50:53;;;;;;;2.10;1.40;;;23.10;56.10;;;;;;4479051;32;20081;-69
2022/05/19 00:53:29;;;;;;;2.05;1.33;;;23.10;56.20;;;;;;4478831;31;20095;-69
2022/05/19 00:55:59;;;;;;;2.00;1.40;;;23.10;56.10;;;;;;4479169;31;20117;-70
2022/05/19 00:58:38;;;;;;;2.63;1.40;;;23.10;56.20;;;;;;4478769;32;20206;-71
2022/05/19 01:01:06;;;;;;;3.90;1.20;;;23.10;56.10;;;;;;4479116;31;20070;-69
2022/05/19 01:03:38;;;;;;;1.73;1.23;;;23.10;56.20;;;;;;4479097;31;20096;-69
2022/05/19 01:06:10;;;;;;;1.38;1.10;;;23.10;56.20;;;;;;4479204;31;20121;-70
2022/05/19 01:08:44;;;;;;;1.40;1.17;;;23.10;56.20;;;;;;4478800;31;20066;-69
2022/05/19 01:11:11;;;;;;;1.90;1.33;;;23.10;56.20;;;;;;4478775;31;20074;-69
2022/05/19 01:13:37;;;;;;;1.70;1.10;;;23.10;56.20;;;;;;4478858;31;20070;-69
2022/05/19 01:16:05;;;;;;;1.73;1.20;;;23.10;56.20;;;;;;4478696;31;20167;-73
2022/05/19 01:18:32;;;;;;;2.80;1.20;;;23.10;56.20;;;;;;4478885;31;20074;-70
2022/05/19 01:20:59;;;;;;;2.00;1.20;;;23.10;56.20;;;;;;4478937;31;20065;-69
2022/05/19 01:23:54;;;;;;;2.40;1.13;;;23.10;56.20;;;;;;4478827;31;20602;-69
2022/05/19 01:26:52;;;;;;;1.48;1.10;;;23.10;56.10;;;;;;4478973;32;20089;-69
2022/05/19 01:29:22;;;;;;;2.35;1.10;;;23.00;56.10;;;;;;4479141;32;20092;-69
2022/05/19 01:31:52;;;;;;;1.95;1.23;;;23.00;56.20;;;;;;4478495;31;20077;-69
2022/05/19 01:34:21;;;;;;;1.33;1.23;;;23.00;56.20;;;;;;4478405;32;20085;-69
2022/05/19 01:36:47;;;;;;;2.20;1.27;;;23.00;56.20;;;;;;4478214;31;20406;-69
2022/05/19 01:39:20;;;;;;;2.33;1.30;;;23.00;56.20;;;;;;4478511;31;20091;-69
2022/05/19 01:42:22;;;;;;;1.55;1.27;;;23.00;56.20;;;;;;4478611;31;20192;-69
2022/05/19 01:45:05;;;;;;;2.05;1.35;;;23.00;56.10;;;;;;4478285;31;20507;-69
2022/05/19 01:47:44;;;;;;;;;;;23.00;56.20;;;;;;4478889;31;20495;-70
2022/05/19 01:50:25;;;;;;;2.03;1.25;;;23.00;56.20;;;;;;4478243;31;19984;-69
2022/05/19 01:53:03;;;;;;;1.77;1.05;;;22.90;56.20;;;;;;4478220;31;20074;-69
2022/05/19 01:55:51;;;;;;;1.67;1.20;;;22.90;56.20;;;;;;4478446;31;20503;-70
2022/05/19 01:58:25;;;;;;;2.40;1.40;;;22.90;56.20;;;;;;4478542;32;20522;-69
2022/05/19 02:00:54;;;;;;;2.67;1.25;;;22.90;56.30;;;;;;4477742;32;20388;-69
2022/05/19 02:03:27;;;;;;;1.67;0.93;;;22.90;56.30;;;;;;4478264;31;20227;-69
2022/05/19 02:06:14;;;;;;;1.23;1.05;;;22.90;56.30;;;;;;4478460;31;20088;-69
2022/05/19 02:08:55;;;;;;;1.60;0.90;;;22.90;56.20;;;;;;4478563;31;20081;-69
2022/05/19 02:11:43;;;;;;;1.88;1.20;;;22.90;56.30;;;;;;4478426;31;20080;-69
2022/05/19 02:14:14;;;;;;;1.35;0.90;;;22.90;56.20;;;;;;4478111;31;20084;-69
2022/05/19 02:16:42;;;;;;;1.67;1.20;;;22.90;56.30;;;;;;4477796;31;20499;-69
2022/05/19 02:19:10;;;;;;;1.95;1.13;;;22.90;56.30;;;;;;4477864;31;20081;-70
2022/05/19 02:21:36;;;;;;;1.70;1.10;;;22.90;56.30;;;;;;4478058;32;20084;-69
2022/05/19 02:24:03;;;;;;;1.95;1.20;;;22.90;56.30;;;;;;4477621;32;20074;-69
2022/05/19 02:26:38;;;;;;;1.70;1.10;;;22.90;56.30;;;;;;4477804;31;20081;-70
2022/05/19 02:29:09;;;;;;;1.20;0.95;;;22.90;56.30;;;;;;4477867;31;20077;-69
2022/05/19 02:31:35;;;;;;;1.38;1.00;;;22.90;56.30;;;;;;4477922;31;20573;-70
2022/05/19 02:34:01;;;;;;;2.25;1.17;;;22.90;56.30;;;;;;4477802;31;20166;-69
2022/05/19 02:36:27;;;;;;;1.40;0.90;;;22.90;56.30;;;;;;4477997;31;20089;-69
2022/05/19 02:38:53;;;;;;;2.13;1.20;;;22.90;56.30;;;;;;4478056;31;20481;-69
2022/05/19 02:41:20;;;;;;;2.38;1.13;;;22.90;56.30;;;;;;4477687;31;20099;-69
2022/05/19 02:43:46;;;;;;;1.20;1.08;;;22.90;56.30;;;;;;4477745;32;20084;-69
2022/05/19 02:46:12;;;;;;;1.15;0.93;;;22.90;56.30;;;;;;4477860;31;20084;-69
2022/05/19 02:48:37;;;;;;;1.65;1.10;;;22.90;56.30;;;;;;4477401;32;20092;-69
2022/05/19 02:51:03;;;;;;;1.38;1.00;;;22.80;56.30;;;;;;4477131;31;20077;-69
2022/05/19 02:53:29;;;;;;;1.45;0.93;;;22.80;56.20;;;;;;4477518;32;20077;-70
2022/05/19 02:55:55;;;;;;;2.33;1.30;;;22.80;56.20;;;;;;4477203;31;20194;-69
2022/05/19 02:58:21;;;;;;;2.10;1.10;;;22.80;56.30;;;;;;4477448;31;20077;-69
2022/05/19 03:00:49;;;;;;;1.92;1.05;;;22.80;56.30;;;;;;4477665;32;20080;-69
2022/05/19 03:03:15;;;;;;;1.35;1.00;;;22.80;56.30;;;;;;4477632;31;20088;-69
2022/05/19 03:05:41;;;;;;;1.25;0.90;;;22.80;56.30;;;;;;4477622;31;20077;-69
2022/05/19 03:08:08;;;;;;;0.70;0.70;;;22.80;56.30;;;;;;4477568;32;19985;-69
2022/05/19 03:10:36;;;;;;;0.95;0.88;;;22.80;56.30;;;;;;4476973;31;20210;-69
2022/05/19 03:13:03;;;;;;;1.85;1.10;;;22.80;56.30;;;;;;4476916;32;20082;-69
2022/05/19 03:15:29;;;;;;;1.55;1.05;;;22.80;56.30;;;;;;4477159;31;20515;-69
2022/05/19 03:17:56;;;;;;;3.05;1.00;;;22.80;56.30;;;;;;4477134;32;20128;-69
2022/05/19 03:20:22;;;;;;;1.23;0.98;;;22.80;56.40;;;;;;4476775;31;20396;-69
2022/05/19 03:22:48;;;;;;;1.80;1.10;;;22.80;56.40;;;;;;4475741;32;20092;-69
2022/05/19 03:25:15;;;;;;;1.73;1.00;;;22.80;56.40;;;;;;4476862;31;20428;-69
2022/05/19 03:27:41;;;;;;;2.10;1.00;;;22.70;56.30;;;;;;4477188;31;20391;-69
2022/05/19 03:30:11;;;;;;;2.60;1.17;;;22.70;57.30;;;;;;4476965;31;20069;-69
2022/05/19 03:32:38;;;;;;;1.38;1.05;;;22.70;56.30;;;;;;4477191;31;20081;-70
2022/05/19 03:35:04;;;;;;;1.40;1.10;;;22.80;56.40;;;;;;4476633;31;20529;-69
2022/05/19 03:37:30;;;;;;;1.20;1.00;;;22.70;56.30;;;;;;4476680;31;20555;-69
2022/05/19 03:39:56;;;;;;;2.40;1.10;;;22.70;56.30;;;;;;4477031;31;20203;-70
2022/05/19 03:42:23;;;;;;;1.95;1.08;;;22.70;56.30;;;;;;4476811;32;20142;-69
2022/05/19 03:44:48;;;;;;;1.88;1.10;;;22.70;56.40;;;;;;4477074;31;20293;-69
2022/05/19 03:47:15;;;;;;;1.90;1.02;;;22.70;56.40;;;;;;4476668;31;20376;-69
2022/05/19 03:49:40;;;;;;;1.63;1.15;;;22.70;56.40;;;;;;4476617;31;20077;-70
2022/05/19 03:52:06;;;;;;;1.33;0.85;;;22.70;56.40;;;;;;4476628;31;20522;-69
2022/05/19 03:54:32;;;;;;;1.65;1.00;;;22.70;56.40;;;;;;4476662;31;20069;-69
2022/05/19 03:56:58;;;;;;;1.48;0.90;;;22.70;56.40;;;;;;4476374;31;20061;-69
2022/05/19 03:59:24;;;;;;;2.67;1.20;;;22.70;56.40;;;;;;4476570;32;20069;-69
2022/05/19 04:01:50;;;;;;;1.63;1.00;;;22.70;56.40;;;;;;4476313;32;20088;-72
2022/05/19 04:04:16;;;;;;;1.33;1.10;;;22.70;56.40;;;;;;4476285;32;20117;-69
2022/05/19 04:06:41;;;;;;;2.85;1.10;;;22.60;56.40;;;;;;4476158;31;20140;-69
2022/05/19 04:09:07;;;;;;;3.58;1.15;;;22.70;56.50;;;;;;4476452;31;20525;-63
2022/05/19 04:11:34;;;;;;;1.92;1.20;;;22.60;56.50;;;;;;4476473;32;20159;-70
2022/05/19 04:14:00;;;;;;;5.78;2.83;;;22.60;56.50;;;;;;4475361;32;20215;-68
2022/05/19 04:16:26;;;;;;;5.45;4.18;;;22.70;56.60;;;;;;4476505;32;20089;-69
2022/05/19 04:18:52;;;;;;;10.02;6.10;;;22.60;56.50;;;;;;4475000;32;20478;-69
2022/05/19 04:21:18;;;;;;;8.85;6.53;;;22.60;56.50;;;;;;4475403;32;20069;-68
2022/05/19 04:23:43;;;;;;;9.38;6.45;;;22.60;56.50;;;;;;4476426;32;20071;-67
2022/05/19 04:26:09;;;;;;;10.88;7.55;;;22.60;56.50;;;;;;4476259;32;20208;-68
2022/05/19 04:28:35;;;;;;;8.85;7.10;;;22.60;56.50;;;;;;4475929;32;20683;-67
2022/05/19 04:31:01;;;;;;;10.68;6.82;;;22.60;56.80;;;;;;4476275;32;20220;-69
2022/05/19 04:33:28;;;;;;;12.27;7.57;;;22.60;56.90;;;;;;4475939;32;20091;-68
2022/05/19 04:35:54;;;;;;;13.73;7.93;;;22.60;57.10;;;;;;4475892;32;20089;-68
2022/05/19 04:38:20;;;;;;;10.52;7.18;;;22.50;57.00;;;;;;4476073;32;20081;-68
2022/05/19 04:40:48;;;;;;;7.05;5.90;;;22.60;57.10;;;;;;4476116;32;20103;-68
2022/05/19 04:43:22;;;;;;;7.88;6.00;;;22.60;57.20;;;;;;4475825;32;20089;-68
2022/05/19 04:45:53;;;;;;;9.20;5.72;;;22.50;57.30;;;;;;4476351;32;20070;-68
2022/05/19 04:48:20;;;;;;;10.23;5.70;;;22.50;57.30;;;;;;4476302;32;20205;-68
2022/05/19 04:50:46;;;;;;;8.70;5.40;;;22.50;57.40;;;;;;4475994;32;20223;-68
2022/05/19 04:53:13;;;;;;;9.15;5.15;;;22.50;57.40;;;;;;4475870;32;20099;-68
2022/05/19 04:55:39;;;;;;;7.88;5.10;;;22.60;57.40;;;;;;4476007;32;20089;-68
2022/05/19 04:58:06;;;;;;;7.68;4.90;;;22.50;57.40;;;;;;4474957;32;20210;-68
2022/05/19 05:00:33;;;;;;;6.78;4.68;;;22.50;57.50;;;;;;4475953;32;20187;-68
2022/05/19 05:03:04;;;;;;;6.20;4.25;;;22.50;57.50;;;;;;4476556;32;20081;-68
2022/05/19 05:05:30;;;;;;;5.13;4.30;;;22.50;57.50;;;;;;4475993;32;20065;-68
2022/05/19 05:07:55;;;;;;;6.45;3.97;;;22.60;57.70;;;;;;4475947;32;20195;-68
2022/05/19 05:10:21;;;;;;;5.43;3.72;;;22.50;57.60;;;;;;4475681;32;20155;-68
2022/05/19 05:12:47;;;;;;;5.82;3.92;;;22.60;57.60;;;;;;4476182;32;20081;-68
2022/05/19 05:15:13;;;;;;;7.95;4.35;;;22.50;57.50;;;;;;4476110;32;20066;-68
2022/05/19 05:17:39;;;;;;;7.20;3.88;;;22.50;57.60;;;;;;4475847;32;20407;-68
2022/05/19 05:20:07;;;;;;;7.88;5.43;;;22.50;57.70;;;;;;4475730;32;20061;-68
2022/05/19 05:22:35;;;;;;;9.68;6.82;;;22.50;57.70;;;;;;4475627;32;20085;-68
2022/05/19 05:25:07;;;;;;;13.43;9.77;;;22.50;57.80;;;;;;4475547;32;20096;-68
2022/05/19 05:27:33;;;;;;;13.15;10.75;;;22.50;57.90;;;;;;4475615;32;20096;-68
2022/05/19 05:29:59;;;;;;;13.25;10.10;;;22.50;57.90;;;;;;4475970;32;20082;-68
2022/05/19 05:32:25;;;;;;;13.80;11.02;;;22.50;58.10;;;;;;4475506;32;20407;-68
2022/05/19 05:34:50;;;;;;;13.02;10.23;;;22.50;58.20;;;;;;4476835;32;20081;-68
2022/05/19 05:37:16;;;;;;;15.88;11.75;;;22.50;58.50;;;;;;4478646;32;20380;-67
2022/05/19 05:39:42;;;;;;;17.48;10.70;;;22.50;58.60;;;;;;4478563;32;20057;-68
2022/05/19 05:42:08;;;;;;;16.30;10.23;;;22.50;58.80;;;;;;4478518;32;20124;-68
2022/05/19 05:44:35;;;;;;;18.98;10.35;;;22.50;58.80;;;;;;4478325;32;20107;-67
2022/05/19 05:47:01;;;;;;;14.65;9.93;;;22.50;59.00;;;;;;4477160;32;20069;-67
2022/05/19 05:49:27;;;;;;;15.48;11.10;;;22.50;58.90;;;;;;4477609;32;20142;-67
2022/05/19 05:51:53;;;;;;;16.52;11.75;;;22.50;59.00;;;;;;4477878;31;20554;-68
2022/05/19 05:54:18;;;;;;;18.30;12.80;;;22.50;59.20;;;;;;4478363;32;20081;-67
2022/05/19 05:56:44;;;;;;;16.90;12.52;;;22.50;59.20;;;;;;4478269;32;20168;-68
2022/05/19 05:59:10;;;;;;;15.07;11.93;;;22.50;59.70;;;;;;4478289;31;20412;-68
2022/05/19 06:01:36;;;;;;;18.73;12.60;;;22.50;59.30;;;;;;4478234;32;20109;-67
2022/05/19 06:04:03;;;;;;;14.95;11.50;;;22.50;59.40;;;;;;4477176;32;20515;-67
2022/05/19 06:06:29;;;;;;;17.17;12.20;;;22.50;59.40;;;;;;4478067;32;20423;-68
2022/05/19 06:08:55;;;;;;;20.42;12.80;;;22.50;59.40;;;;;;4478446;32;20504;-68
2022/05/19 06:11:21;;;;;;;19.52;13.70;;;22.50;59.60;;;;;;4478146;32;20518;-67
2022/05/19 06:13:50;;;;;;;18.83;13.73;;;22.50;59.80;;;;;;4478078;32;20207;-67
2022/05/19 06:16:16;;;;;;;18.67;13.90;;;22.50;60.00;;;;;;4478309;32;20113;-67
2022/05/19 06:18:42;;;;;;;18.23;14.18;;;22.50;60.10;;;;;;4478082;32;20065;-67
2022/05/19 06:21:07;;;;;;;20.52;14.65;;;22.50;60.10;;;;;;4476543;32;20085;-67
2022/05/19 06:23:33;;;;;;;22.63;14.18;;;22.60;60.20;;;;;;4478160;32;20085;-67
2022/05/19 06:26:00;;;;;;;17.67;14.27;;;22.60;60.30;;;;;;4477565;31;20399;-67
2022/05/19 06:28:26;;;;;;;18.52;13.30;;;22.50;60.30;;;;;;4477843;32;20113;-67
2022/05/19 06:30:52;;;;;;;23.23;13.43;;;22.50;60.40;;;;;;4477864;31;20222;-67
2022/05/19 06:33:20;;;;;;;19.60;13.63;;;22.60;60.50;;;;;;4477791;32;20077;-67
2022/05/19 06:35:46;;;;;;;22.15;14.07;;;22.60;60.50;;;;;;4477765;31;20703;-67
2022/05/19 06:38:12;;;;;;;20.25;12.68;;;22.50;60.60;;;;;;4477728;32;20100;-67
2022/05/19 06:40:38;;;;;;;23.55;13.23;;;22.50;60.60;;;;;;4477673;32;20077;-67
2022/05/19 06:43:10;;;;;;;19.70;13.35;;;22.50;60.60;;;;;;4477687;31;20232;-67
2022/05/19 06:45:37;;;;;;;16.95;12.95;;;22.50;60.80;;;;;;4476753;32;20086;-67
2022/05/19 06:48:03;;;;;;;18.48;11.77;;;22.60;60.80;;;;;;4477205;32;20066;-67
2022/05/19 06:50:29;;;;;;;16.30;11.68;;;22.60;60.70;;;;;;4477737;31;20079;-67
2022/05/19 06:53:01;;;;;;;16.60;11.68;;;22.60;60.60;;;;;;4477064;32;20504;-67
2022/05/19 06:55:30;;;;;;;16.35;10.85;;;22.60;60.80;;;;;;4477343;31;20133;-67
2022/05/19 06:57:56;;;;;;;16.98;11.25;;;22.50;60.70;;;;;;4477450;31;20198;-67
2022/05/19 07:00:24;;;;;;;18.23;11.25;;;22.60;60.70;;;;;;4477683;32;20089;-67
2022/05/19 07:02:54;;;;;;;15.02;10.05;;;22.50;60.70;;;;;;4477319;32;20384;-67
2022/05/19 07:05:22;;;;;;;13.93;8.75;;;22.50;60.70;;;;;;4477280;32;20211;-67
2022/05/19 07:07:48;;;;;;;14.57;8.77;;;22.60;60.90;;;;;;4476934;32;20074;-67
2022/05/19 07:10:16;;;;;;;15.25;8.80;;;22.50;60.80;;;;;;4477010;31;20081;-67
2022/05/19 07:12:43;;;;;;;14.55;8.07;;;22.60;61.00;;;;;;4477188;31;20236;-67
2022/05/19 07:15:11;;;;;;;18.25;8.18;;;22.60;61.00;;;;;;4477307;32;20096;-67
2022/05/19 07:17:38;;;;;;;16.23;7.18;;;22.50;61.00;;;;;;4476793;31;20179;-67
2022/05/19 07:22:49;;;;;;;14.52;6.38;;;22.50;61.10;;;;;;4477369;32;20078;-67
2022/05/19 07:25:15;;;;;;;15.80;6.47;;;22.50;61.30;;;;;;4476967;31;20066;-67
2022/05/19 07:27:42;;;;;;;13.45;6.53;;;22.60;61.50;;;;;;4476863;31;20170;-68
2022/05/19 07:30:10;;;;;;;11.52;6.13;;;22.60;61.60;;;;;;4476975;32;20085;-67
2022/05/19 07:32:36;;;;;;;12.15;5.43;;;22.50;61.60;;;;;;4476839;31;20211;-67
2022/05/19 07:35:03;;;;;;;15.05;6.07;;;22.50;61.80;;;;;;4476835;31;20073;-67
2022/05/19 07:37:29;;;;;;;17.75;5.85;;;22.60;61.90;;;;;;4476572;31;20096;-67
2022/05/19 07:39:55;;;;;;;11.35;5.50;;;22.60;61.90;;;;;;4476763;32;20062;-67
2022/05/19 07:42:21;;;;;;;12.35;5.15;;;22.60;62.10;;;;;;4476809;32;20092;-68
2022/05/19 07:44:47;;;;;;;11.07;5.43;;;22.60;62.10;;;;;;4477003;31;20109;-69
2022/05/19 07:47:14;;;;;;;11.52;5.50;;;22.60;62.20;;;;;;4476610;31;20089;-67
2022/05/19 07:49:41;;;;;;;9.65;5.20;;;22.60;62.20;;;;;;4475290;32;20412;-67
2022/05/19 07:52:08;;;;;;;13.45;5.30;;;22.60;62.30;;;;;;4476324;32;20097;-66
2022/05/19 07:54:34;;;;;;;13.43;5.13;;;22.60;62.40;;;;;;4476576;32;20657;-66
2022/05/19 07:57:00;;;;;;;10.18;4.85;;;22.60;62.30;;;;;;4476477;32;20077;-67
2022/05/19 07:59:26;;;;;;;14.20;5.50;;;22.60;62.30;;;;;;4476538;31;20109;-68
2022/05/19 08:01:53;;;;;;;14.05;4.90;;;22.60;62.40;;;;;;4476329;31;20081;-68
2022/05/19 08:04:21;;;;;;;13.40;5.53;;;22.60;62.50;;;;;;4476447;32;20079;-68
2022/05/19 08:06:47;;;;;;;15.75;5.25;;;22.60;62.50;;;;;;4476377;31;20082;-68
2022/05/19 08:11:58;;;;;;;11.68;4.93;;;22.60;62.60;;;;;;4476770;32;20113;-68
2022/05/19 08:17:10;;;;;;;11.35;4.85;;;22.60;62.60;;;;;;4476988;32;20077;-70
2022/05/19 08:19:37;;;;;;;9.93;5.07;;;22.60;62.70;;;;;;4476377;32;20109;-67
2022/05/19 08:22:04;;;;;;;10.85;4.68;;;22.60;62.60;;;;;;4476197;31;20087;-67
2022/05/19 08:24:30;;;;;;;13.20;5.15;;;22.60;62.70;;;;;;4476334;31;20069;-68
2022/05/19 08:26:57;;;;;;;13.05;5.07;;;22.60;62.70;;;;;;4476280;32;20120;-68
2022/05/19 08:29:24;;;;;;;11.60;4.65;;;22.60;62.80;;;;;;4476264;31;20533;-67
2022/05/19 08:31:50;;;;;;;10.63;4.75;;;22.60;62.80;;;;;;4475944;32;20085;-67
2022/05/19 08:34:17;;;;;;;12.65;4.85;;;22.60;62.70;;;;;;4476201;32;20116;-67
2022/05/19 08:36:44;;;;;;;9.10;4.70;;;22.60;62.70;;;;;;4475959;32;20077;-68
2022/05/19 08:39:13;;;;;;;12.35;4.22;;;22.50;62.60;;;;;;4476110;32;20596;-67
2022/05/19 08:41:59;;;;;;;11.55;4.10;;;22.60;62.50;;;;;;4475841;32;20544;-68
2022/05/19 08:44:32;;;;;;;8.95;3.92;;;22.50;62.30;;;;;;4476184;32;20495;-68
2022/05/19 08:47:02;;;;;;;9.45;4.07;;;22.60;62.40;;;;;;4476082;32;20399;-68
2022/05/19 08:49:49;;;;;;;9.90;4.38;;;22.50;62.40;;;;;;4476400;32;20087;-67
2022/05/19 08:52:23;;;;;;;12.13;3.90;;;22.50;62.40;;;;;;4475871;32;20073;-69
2022/05/19 08:54:52;;;;;;;9.75;4.03;;;22.50;62.30;;;;;;4476329;32;20073;-70
2022/05/19 08:57:23;;;;;;;9.90;4.35;;;22.60;62.40;;;;;;4474951;32;20077;-71
2022/05/19 09:00:07;;;;;;;8.35;3.83;;;22.50;62.20;;;;;;4476376;32;20477;-70
2022/05/19 09:02:42;;;;;;;9.88;3.88;;;22.50;62.10;;;;;;4476344;32;20097;-70
2022/05/19 09:05:21;;;;;;;8.60;3.72;;;22.50;62.20;;;;;;4476083;32;20561;-69
2022/05/19 09:08:00;;;;;;;9.82;3.53;;;22.60;62.10;;;;;;4475834;32;20533;-69
2022/05/19 09:10:47;;;;;;;12.73;3.75;;;22.50;62.00;;;;;;4477913;32;20081;-71
2022/05/19 09:13:16;;;;;;;7.80;3.30;;;22.60;62.10;;;;;;4479249;32;20099;-71
2022/05/19 09:15:47;;;;;;;10.18;3.58;;;22.60;62.20;;;;;;4479125;31;20186;-70
2022/05/19 09:18:16;;;;;;;10.38;3.35;;;22.60;62.10;;;;;;4479011;32;20093;-70
2022/05/19 09:20:52;;;;;;;9.50;3.42;;;22.60;62.00;;;;;;4478796;31;20070;-70
2022/05/19 09:23:18;;;;;;;10.50;3.80;;;22.60;62.00;;;;;;4478895;31;20499;-70
2022/05/19 09:25:51;;;;;;;7.88;3.33;;;22.70;62.00;;;;;;4478786;31;20081;-70
2022/05/19 09:28:18;;;;;;;9.93;3.30;;;22.70;62.00;;;;;;4478783;31;20109;-70
2022/05/19 09:30:53;;;;;;;8.15;3.20;;;22.70;61.90;;;;;;4479025;31;20084;-73
2022/05/19 09:33:31;;;;;;;10.90;3.10;;;22.70;61.80;;;;;;4478708;31;20066;-70
2022/05/19 09:35:59;;;;;;;4.55;2.70;;;22.70;61.60;;;;;;4477463;32;20089;-72
2022/05/19 09:38:36;;;;;;;7.78;2.78;;;22.70;61.70;;;;;;4478582;31;20093;-68
2022/05/19 09:41:06;;;;;;;7.20;2.83;;;22.80;61.70;;;;;;4478984;32;20081;-69
2022/05/19 09:43:36;;;;;;;8.18;2.40;;;22.80;61.70;;;;;;4478756;31;20089;-69
2022/05/19 09:46:07;;;;;;;8.32;2.83;;;22.80;61.70;;;;;;4478679;31;20077;-69
2022/05/19 09:48:37;;;;;;;11.00;3.25;;;22.80;61.60;;;;;;4478698;32;20097;-69
2022/05/19 09:51:10;;;;;;;6.90;2.72;;;22.80;61.60;;;;;;4478709;31;20091;-69
2022/05/19 09:53:46;;;;;;;7.18;2.80;;;22.80;61.60;;;;;;4478701;32;20672;-69
2022/05/19 09:56:15;;;;;;;6.93;2.97;;;22.80;61.60;;;;;;4478320;32;20150;-68
2022/05/19 09:58:50;;;;;;;8.45;2.97;;;22.90;61.70;;;;;;4478596;32;20535;-71
2022/05/19 10:01:18;;;;;;;12.55;3.47;;;22.90;61.60;;;;;;4478448;31;20227;-71
2022/05/19 10:03:58;;;;;;;5.95;2.50;;;22.90;61.60;;;;;;4478455;31;20077;-72
2022/05/19 10:07:05;;;;;;;4.97;2.47;;;22.90;61.50;;;;;;4475775;32;20073;-71
2022/05/19 10:09:39;;;;;;;7.30;2.65;;;22.90;61.50;;;;;;4478023;32;20061;-72
2022/05/19 10:12:09;;;;;;;;;;;22.90;61.40;;;;;;4477796;32;20088;-72
2022/05/19 10:14:36;;;;;;;6.95;2.38;;;22.90;61.40;;;;;;4478319;32;19977;-73
2022/05/19 10:17:14;;;;;;;7.00;2.42;;;22.90;61.30;;;;;;4478248;31;20073;-72
2022/05/19 10:19:49;;;;;;;8.35;2.90;;;23.00;61.40;;;;;;4478319;31;20065;-72
2022/05/19 10:22:37;;;;;;;6.97;2.53;;;23.00;61.30;;;;;;4477799;32;20525;-73
2022/05/19 10:25:33;;;;;;;7.15;2.33;;;23.00;61.40;;;;;;4478340;31;20069;-72
2022/05/19 10:31:07;;;;;;;7.15;2.72;;;23.00;61.30;;;;;;4478262;32;20088;-71
2022/05/19 10:34:00;;;;;;;9.20;2.45;;;23.00;61.30;;;;;;4477966;31;20499;-68
2022/05/19 10:36:50;;;;;;;10.65;3.10;;;23.00;61.40;;;;;;4478037;31;20100;-69
2022/05/19 10:39:37;;;;;;;6.57;2.25;;;23.00;61.40;;;;;;4477749;31;20093;-69
2022/05/19 10:42:36;;;;;;;6.53;2.55;;;23.00;61.50;;;;;;4477922;31;20179;-69
2022/05/19 10:45:25;;;;;;;4.88;2.22;;;23.00;61.30;;;;;;4468136;31;20415;-69
2022/05/19 10:48:13;;;;;;;5.70;2.42;;;23.00;61.30;;;;;;4477801;31;20596;-69
2022/05/19 10:50:45;;;;;;;8.55;2.60;;;23.10;61.60;;;;;;4477616;31;20074;-69
2022/05/19 10:54:01;;;;;;;12.77;2.87;;;23.10;61.60;;;;;;4477673;31;20127;-69
2022/05/19 10:56:53;;;;;;;16.15;3.30;;;23.10;61.70;;;;;;4473497;31;20261;-69
2022/05/19 10:59:39;;;;;;;9.95;2.70;;;23.10;61.70;;;;;;4477859;31;20129;-69
2022/05/19 11:02:38;;;;;;;8.48;2.90;;;23.10;61.60;;;;;;4477552;31;20088;-68
2022/05/19 11:05:29;;;;;;;5.47;2.20;;;23.10;61.50;;;;;;4477867;31;20049;-69
2022/05/19 11:08:11;;;;;;;10.77;2.92;;;23.10;61.60;;;;;;4477419;32;20121;-69
2022/05/19 11:10:56;;;;;;;10.93;2.97;;;23.10;61.60;;;;;;4477427;31;20132;-69
2022/05/19 11:13:44;;;;;;;7.57;2.85;;;23.10;61.50;;;;;;4477530;31;20140;-68
2022/05/19 11:16:41;;;;;;;10.07;2.70;;;23.20;61.60;;;;;;4477288;31;20066;-68
2022/05/19 11:19:18;;;;;;;11.75;2.75;;;23.20;61.60;;;;;;4476907;32;20105;-71
2022/05/19 11:22:00;;;;;;;11.90;2.67;;;23.20;61.60;;;;;;4477309;31;20088;-69
2022/05/19 11:26:23;;;;;;;12.60;3.05;;;23.20;61.50;;;;;;4477213;31;20072;-69
2022/05/19 11:27:30;;;;;;;9.05;2.88;;;23.20;61.50;;;;;;4477021;32;20081;-70
2022/05/19 11:30:04;;;;;;;8.50;2.50;;;23.20;61.50;;;;;;4477032;32;20167;-69
2022/05/19 11:32:35;;;;;;;6.13;2.95;;;23.20;61.40;;;;;;4476859;31;20410;-69
2022/05/19 11:35:24;;;;;;;5.25;2.50;;;23.30;61.40;;;;;;4477178;31;20085;-69
2022/05/19 11:38:15;;;;;;;6.15;2.75;;;23.30;61.40;;;;;;4477423;31;20078;-68
2022/05/19 11:40:53;;;;;;;6.13;2.70;;;23.30;61.40;;;;;;4477138;31;20065;-68
2022/05/19 11:43:27;;;;;;;9.48;2.60;;;23.30;61.40;;;;;;4476803;31;20126;-68
2022/05/19 11:46:04;;;;;;;5.85;2.78;;;23.30;61.20;;;;;;4476824;31;20142;-69
2022/05/19 11:57:56;;;;;;;23.65;3.25;;;23.40;61.00;;;;;;4477058;32;20222;-69
2022/05/19 12:00:28;;;;;;;13.30;3.20;;;23.40;61.00;;;;;;4477015;31;20080;-68
2022/05/19 12:03:00;;;;;;;15.55;3.08;;;23.40;60.90;;;;;;4476741;31;20079;-68
2022/05/19 12:06:00;;;;;;;20.42;3.85;;;23.40;60.90;;;;;;4476497;31;20069;-68
2022/05/19 12:08:51;;;;;;;13.18;3.30;;;23.40;60.90;;;;;;4476481;32;20491;-69
2022/05/19 12:11:40;;;;;;;10.90;3.13;;;23.50;60.90;;;;;;4475321;32;20514;-69
2022/05/19 12:14:19;;;;;;;9.98;3.95;;;23.40;60.80;;;;;;4476667;32;20116;-68
2022/05/19 12:16:52;;;;;;;7.00;4.00;;;23.40;60.80;;;;;;4476836;32;20123;-68
2022/05/19 12:19:44;;;;;;;10.25;3.67;;;23.40;60.80;;;;;;4476911;32;20105;-68
2022/05/19 12:22:34;;;;;;;4.40;3.28;;;23.40;60.80;;;;;;4476471;32;20162;-68
2022/05/19 12:25:00;;;;;;;7.78;3.35;;;23.40;60.80;;;;;;4476795;32;20403;-68
2022/05/19 12:27:31;;;;;;;6.88;2.85;;;23.40;60.90;;;;;;4476209;31;20525;-68
2022/05/19 12:31:56;;;;;;;6.63;3.60;;;23.40;60.90;;;;;;4476759;32;20128;-68
2022/05/19 12:33:28;;;;;;;8.13;3.45;;;23.40;61.00;;;;;;4476434;32;20085;-68
2022/05/19 12:36:00;;;;;;;7.60;3.53;;;23.30;60.90;;;;;;4473682;32;20073;-68
2022/05/19 12:38:36;;;;;;;4.70;3.10;;;23.30;61.10;;;;;;4476581;32;20166;-68
2022/05/19 12:41:04;;;;;;;5.82;3.10;;;23.30;61.10;;;;;;4476596;32;20466;-69
2022/05/19 12:43:37;;;;;;;5.63;3.25;;;23.30;61.20;;;;;;4476716;32;20219;-69
2022/05/19 12:46:06;;;;;;;11.13;3.33;;;23.30;61.20;;;;;;4478418;32;20070;-69
2022/05/19 12:48:32;;;;;;;6.90;3.42;;;23.30;61.20;;;;;;4479279;31;20089;-68
2022/05/19 12:51:25;;;;;;;8.15;3.05;;;23.20;61.30;;;;;;4479006;31;20092;-69
2022/05/19 12:53:51;;;;;;;5.00;3.08;;;23.20;61.10;;;;;;4479624;31;20112;-68
2022/05/19 12:56:42;;;;;;;8.18;3.50;;;23.20;61.40;;;;;;4478895;32;20113;-68
2022/05/19 12:59:23;;;;;;;6.63;3.10;;;23.20;61.40;;;;;;4479205;32;20140;-68
2022/05/19 13:01:53;;;;;;;6.78;2.95;;;23.20;61.60;;;;;;4479532;31;20540;-67
2022/05/19 13:04:28;;;;;;;6.88;2.97;;;23.20;61.80;;;;;;4478985;32;20081;-68
2022/05/19 13:07:17;;;;;;;6.57;3.05;;;23.10;61.60;;;;;;4479034;31;20632;-68
2022/05/19 13:10:00;;;;;;;7.25;2.92;;;23.10;61.70;;;;;;4479088;32;20100;-68
2022/05/19 13:12:30;;;;;;;5.20;3.00;;;23.10;61.80;;;;;;4479096;32;20163;-68
2022/05/19 13:14:59;;;;;;;4.38;2.60;;;23.10;62.00;;;;;;4479204;32;20081;-68
2022/05/19 13:17:43;;;;;;;5.25;2.80;;;23.10;62.10;;;;;;4479196;31;20432;-69
2022/05/19 13:20:25;;;;;;;5.00;2.95;;;23.10;62.10;;;;;;4478976;32;20073;-69
2022/05/19 13:23:00;;;;;;;6.30;2.80;;;23.00;62.10;;;;;;4478953;31;20163;-69
2022/05/19 13:25:27;;;;;;;7.70;3.15;;;23.10;62.30;;;;;;4478878;32;20163;-69
2022/05/19 13:30:54;;;;;;;7.63;3.05;;;23.00;62.60;;;;;;4478580;32;20077;-69